createdAt,value
2018-08-18T00:00:19.705Z,14.70
2018-08-18T00:02:48.357Z,15.40
2018-08-18T00:05:18.138Z,15.60
2018-08-18T00:07:46.904Z,14.30
2018-08-18T00:10:18.404Z,14.90
2018-08-18T00:12:47.430Z,14.17
2018-08-18T00:15:16.401Z,16.50
2018-08-18T00:17:45.057Z,15.00
2018-08-18T00:20:17.631Z,15.67
2018-08-18T00:22:46.538Z,14.20
2018-08-18T00:25:15.272Z,15.43
2018-08-18T00:27:43.907Z,15.33
2018-08-18T00:30:18.324Z,14.73
2018-08-18T00:32:46.964Z,16.00
2018-08-18T00:35:15.603Z,15.63
2018-08-18T00:37:44.563Z,14.70
2018-08-18T00:40:13.308Z,14.97
2018-08-18T00:42:42.058Z,15.30
2018-08-18T00:45:12.045Z,16.10
2018-08-18T00:47:41.214Z,15.17
2018-08-18T00:50:10.771Z,14.97
2018-08-18T00:52:39.857Z,15.03
2018-08-18T00:55:08.927Z,16.97
2018-08-18T00:57:37.535Z,15.70
2018-08-18T01:00:06.797Z,15.80
2018-08-18T01:02:35.706Z,15.67
2018-08-18T01:05:04.856Z,16.07
2018-08-18T01:07:33.612Z,15.90
2018-08-18T01:10:02.761Z,18.20
2018-08-18T01:12:31.799Z,17.10
2018-08-18T01:15:00.677Z,15.67
2018-08-18T01:17:29.417Z,17.30
2018-08-18T01:19:59.029Z,19.83
2018-08-18T01:22:27.699Z,16.10
2018-08-18T01:24:56.310Z,16.80
2018-08-18T01:27:25.036Z,18.10
2018-08-18T01:30:00.786Z,17.03
2018-08-18T01:32:32.001Z,16.67
2018-08-18T01:35:00.663Z,16.83
2018-08-18T01:37:31.497Z,18.23
2018-08-18T01:40:00.164Z,16.77
2018-08-18T01:42:29.185Z,17.17
2018-08-18T01:44:57.817Z,17.20
2018-08-18T01:47:26.475Z,17.57
2018-08-18T01:49:55.104Z,17.10
2018-08-18T01:52:25.001Z,16.17
2018-08-18T01:54:53.678Z,17.17
2018-08-18T01:57:23.378Z,17.93
2018-08-18T01:59:52.206Z,17.27
2018-08-18T02:02:23.277Z,17.17
2018-08-18T02:04:52.078Z,18.27
2018-08-18T02:07:25.409Z,16.83
2018-08-18T02:09:54.657Z,16.93
2018-08-18T02:12:23.544Z,17.00
2018-08-18T02:14:52.465Z,17.47
2018-08-18T02:17:35.512Z,17.97
2018-08-18T02:20:05.159Z,18.90
2018-08-18T02:22:34.088Z,18.90
2018-08-18T02:25:02.791Z,17.80
2018-08-18T02:27:31.430Z,18.97
2018-08-18T02:30:22.425Z,19.03
2018-08-18T02:32:51.074Z,20.80
2018-08-18T02:35:19.806Z,19.33
2018-08-18T02:37:48.416Z,19.60
2018-08-18T02:40:18.242Z,18.93
2018-08-18T02:42:46.938Z,20.27
2018-08-18T02:45:16.427Z,19.40
2018-08-18T02:47:45.066Z,18.63
2018-08-18T02:50:14.839Z,19.07
2018-08-18T02:52:43.496Z,18.87
2018-08-18T02:55:12.780Z,17.17
2018-08-18T02:57:42.648Z,18.40
2018-08-18T03:00:27.144Z,18.07
2018-08-18T03:02:56.147Z,18.60
2018-08-18T03:05:24.821Z,19.07
2018-08-18T03:07:53.740Z,20.63
2018-08-18T03:10:25.618Z,21.97
2018-08-18T03:12:56.785Z,21.53
2018-08-18T03:16:01.242Z,21.03
2018-08-18T03:18:36.456Z,21.47
2018-08-18T03:21:05.485Z,22.23
2018-08-18T03:23:34.965Z,22.37
2018-08-18T03:26:03.688Z,21.70
2018-08-18T03:28:37.227Z,22.53
2018-08-18T03:31:06.583Z,21.17
2018-08-18T03:33:35.685Z,18.83
2018-08-18T03:36:18.230Z,19.30
2018-08-18T03:38:47.160Z,19.43
2018-08-18T03:41:15.764Z,17.43
2018-08-18T03:43:44.420Z,16.67
2018-08-18T03:46:13.079Z,14.73
2018-08-18T03:48:41.749Z,14.27
2018-08-18T03:51:10.388Z,13.50
2018-08-18T03:53:39.005Z,15.27
2018-08-18T03:56:07.685Z,12.87
2018-08-18T03:58:48.166Z,12.00
2018-08-18T04:01:17.844Z,11.60
2018-08-18T04:03:46.470Z,12.27
2018-08-18T04:06:15.127Z,11.20
2018-08-18T04:08:43.767Z,11.03
2018-08-18T04:11:12.386Z,12.07
2018-08-18T04:13:41.056Z,11.70
2018-08-18T04:16:09.676Z,11.17
2018-08-18T04:18:38.448Z,11.57
2018-08-18T04:21:07.071Z,10.57
2018-08-18T04:23:35.757Z,10.50
2018-08-18T04:26:04.429Z,9.87
2018-08-18T04:28:33.741Z,10.48
2018-08-18T04:31:02.370Z,10.37
2018-08-18T04:33:30.981Z,10.53
2018-08-18T04:36:01.180Z,10.68
2018-08-18T04:38:29.880Z,12.47
2018-08-18T04:40:58.512Z,11.63
2018-08-18T04:43:27.122Z,11.43
2018-08-18T04:45:55.734Z,12.13
2018-08-18T04:48:29.838Z,10.70
2018-08-18T04:50:58.597Z,10.97
2018-08-18T04:53:27.224Z,9.60
2018-08-18T04:55:56.044Z,15.03
2018-08-18T04:58:25.458Z,11.48
2018-08-18T05:00:54.451Z,9.80
2018-08-18T05:03:23.436Z,12.03
2018-08-18T05:05:52.824Z,10.20
2018-08-18T05:08:21.447Z,12.00
2018-08-18T05:10:50.631Z,9.30
2018-08-18T05:13:19.827Z,10.20
2018-08-18T05:15:49.051Z,10.43
2018-08-18T05:18:18.246Z,11.55
2018-08-18T05:20:48.969Z,9.93
2018-08-18T05:23:25.305Z,9.70
2018-08-18T05:25:54.525Z,10.82
2018-08-18T05:28:23.734Z,17.73
2018-08-18T05:30:54.374Z,11.70
2018-08-18T05:33:23.646Z,9.00
2018-08-18T05:35:53.028Z,9.38
2018-08-18T05:38:22.306Z,10.03
2018-08-18T05:40:51.482Z,9.98
2018-08-18T05:43:20.664Z,9.65
2018-08-18T05:45:49.988Z,8.33
2018-08-18T05:48:19.214Z,12.53
2018-08-18T05:50:48.400Z,8.23
2018-08-18T05:53:20.669Z,10.95
2018-08-18T05:55:51.721Z,8.15
2018-08-18T05:58:24.505Z,10.53
2018-08-18T06:01:07.873Z,8.35
2018-08-18T06:03:37.162Z,8.05
2018-08-18T06:06:06.683Z,10.08
2018-08-18T06:08:36.124Z,7.75
2018-08-18T06:11:05.696Z,8.00
2018-08-18T06:13:35.220Z,7.90
2018-08-18T06:16:13.231Z,7.30
2018-08-18T06:18:42.473Z,8.48
2018-08-18T06:21:11.943Z,8.83
2018-08-18T06:23:41.134Z,7.87
2018-08-18T06:26:10.421Z,7.55
2018-08-18T06:28:39.689Z,8.60
2018-08-18T06:31:08.877Z,7.75
2018-08-18T06:33:37.779Z,6.80
2018-08-18T06:36:06.792Z,6.63
2018-08-18T06:38:36.165Z,7.27
2018-08-18T06:41:05.185Z,6.97
2018-08-18T06:43:35.004Z,9.93
2018-08-18T06:46:04.204Z,6.30
2018-08-18T06:48:34.823Z,7.23
2018-08-18T06:51:04.057Z,6.87
2018-08-18T06:53:38.077Z,6.80
2018-08-18T06:56:07.288Z,7.30
2018-08-18T06:58:36.581Z,6.53
2018-08-18T07:01:06.088Z,6.50
2018-08-18T07:03:38.200Z,6.73
2018-08-18T07:06:07.817Z,7.97
2018-08-18T07:08:42.027Z,6.67
2018-08-18T07:11:11.439Z,8.93
2018-08-18T07:13:40.923Z,6.00
2018-08-18T07:16:09.912Z,6.60
2018-08-18T07:18:38.914Z,8.37
2018-08-18T07:21:08.223Z,7.83
2018-08-18T07:23:37.699Z,6.60
2018-08-18T07:26:07.832Z,6.43
2018-08-18T07:28:39.556Z,8.40
2018-08-18T07:31:08.640Z,8.27
2018-08-18T07:33:37.795Z,8.33
2018-08-18T07:36:06.844Z,7.33
2018-08-18T07:38:35.937Z,6.13
2018-08-18T07:41:05.218Z,7.57
2018-08-18T07:43:35.141Z,7.80
2018-08-18T07:46:05.784Z,8.57
2018-08-18T07:48:35.056Z,7.05
2018-08-18T07:51:05.307Z,6.70
2018-08-18T07:53:34.529Z,6.00
2018-08-18T07:56:03.566Z,7.00
2018-08-18T07:58:32.508Z,6.73
2018-08-18T08:01:01.514Z,7.90
2018-08-18T08:03:30.762Z,7.30
2018-08-18T08:05:59.787Z,6.77
2018-08-18T08:08:36.417Z,7.00
2018-08-18T08:11:12.564Z,7.67
2018-08-18T08:13:41.556Z,7.20
2018-08-18T08:16:10.540Z,5.70
2018-08-18T08:18:39.748Z,7.92
2018-08-18T08:21:09.370Z,7.33
2018-08-18T08:23:38.744Z,5.70
2018-08-18T08:26:07.716Z,7.37
2018-08-18T08:28:36.943Z,7.05
2018-08-18T08:31:06.175Z,8.15
2018-08-18T08:33:37.308Z,7.97
2018-08-18T08:36:16.228Z,8.13
2018-08-18T08:38:51.365Z,6.35
2018-08-18T08:41:24.038Z,7.33
2018-08-18T08:43:53.346Z,5.83
2018-08-18T08:46:22.784Z,6.92
2018-08-18T08:48:55.317Z,7.22
2018-08-18T08:51:25.104Z,7.17
2018-08-18T08:53:56.931Z,6.40
2018-08-18T08:56:40.349Z,6.40
2018-08-18T08:59:09.594Z,7.87
2018-08-18T09:01:39.062Z,7.03
2018-08-18T09:04:08.074Z,6.17
2018-08-18T09:06:41.500Z,6.58
2018-08-18T09:09:10.929Z,9.05
2018-08-18T09:11:40.277Z,6.20
2018-08-18T09:14:09.537Z,8.78
2018-08-18T09:16:38.762Z,10.13
2018-08-18T09:19:08.054Z,7.90
2018-08-18T09:21:42.592Z,8.05
2018-08-18T09:24:12.159Z,7.20
2018-08-18T09:26:58.116Z,8.45
2018-08-18T09:29:28.270Z,7.42
2018-08-18T09:31:58.665Z,6.15
2018-08-18T09:34:29.243Z,7.47
2018-08-18T09:36:58.832Z,7.95
2018-08-18T09:39:34.096Z,9.45
2018-08-18T09:42:06.111Z,10.20
2018-08-18T09:44:37.253Z,8.00
2018-08-18T09:47:07.059Z,12.03
2018-08-18T09:49:36.453Z,7.53
2018-08-18T09:52:07.057Z,8.35
2018-08-18T09:54:36.357Z,8.18
2018-08-18T09:57:05.801Z,11.48
2018-08-18T09:59:35.777Z,7.15
2018-08-18T10:02:05.378Z,6.53
2018-08-18T10:04:34.789Z,8.78
2018-08-18T10:07:04.061Z,8.10
2018-08-18T10:09:33.757Z,7.35
2018-08-18T10:12:03.741Z,8.63
2018-08-18T10:14:33.605Z,12.53
2018-08-18T10:17:03.256Z,12.33
2018-08-18T10:19:33.314Z,7.15
2018-08-18T10:22:02.704Z,8.38
2018-08-18T10:24:31.993Z,11.90
2018-08-18T10:27:06.034Z,10.63
2018-08-18T10:29:35.465Z,7.35
2018-08-18T10:32:04.819Z,8.10
2018-08-18T10:34:34.945Z,10.23
2018-08-18T10:37:06.069Z,6.20
2018-08-18T10:39:37.069Z,6.40
2018-08-18T10:42:14.427Z,7.25
2018-08-18T10:44:50.691Z,6.87
2018-08-18T10:47:21.686Z,6.33
2018-08-18T10:50:02.491Z,6.35
2018-08-18T10:52:43.730Z,6.03
2018-08-18T10:55:14.083Z,8.43
2018-08-18T10:57:55.055Z,8.40
2018-08-18T11:00:25.303Z,6.05
2018-08-18T11:02:56.418Z,6.37
2018-08-18T11:05:26.683Z,6.40
2018-08-18T11:08:04.586Z,6.97
2018-08-18T11:10:35.853Z,7.92
2018-08-18T11:13:05.313Z,7.25
2018-08-18T11:15:34.769Z,6.78
2018-08-18T11:18:04.027Z,8.00
2018-08-18T11:20:34.832Z,6.40
2018-08-18T11:23:14.031Z,6.85
2018-08-18T11:25:45.677Z,6.87
2018-08-18T11:28:15.460Z,6.37
2018-08-18T11:30:44.940Z,6.65
2018-08-18T11:33:26.732Z,10.68
2018-08-18T11:35:55.925Z,6.78
2018-08-18T11:38:25.188Z,6.92
2018-08-18T11:40:54.499Z,9.48
2018-08-18T11:43:23.849Z,7.85
2018-08-18T11:45:53.119Z,7.17
2018-08-18T11:48:24.270Z,7.30
2018-08-18T11:50:54.696Z,8.80
2018-08-18T11:53:24.232Z,7.40
2018-08-18T11:55:53.488Z,11.18
2018-08-18T11:58:23.944Z,30.05
2018-08-18T12:00:56.481Z,38.88
2018-08-18T12:03:33.442Z,9.55
2018-08-18T12:06:04.718Z,9.30
2018-08-18T12:08:35.914Z,8.55
2018-08-18T12:11:06.820Z,8.50
2018-08-18T12:13:41.320Z,8.90
2018-08-18T12:16:11.977Z,7.85
2018-08-18T12:18:42.901Z,8.48
2018-08-18T12:21:13.392Z,10.70
2018-08-18T12:23:44.665Z,8.35
2018-08-18T12:26:19.272Z,8.15
2018-08-18T12:28:49.784Z,8.98
2018-08-18T12:31:20.370Z,7.35
2018-08-18T12:33:49.619Z,7.80
2018-08-18T12:36:18.890Z,7.62
2018-08-18T12:38:49.930Z,9.95
2018-08-18T12:41:19.228Z,6.17
2018-08-18T12:43:50.781Z,5.85
2018-08-18T12:46:21.605Z,8.43
2018-08-18T12:48:54.048Z,6.75
2018-08-18T12:51:23.331Z,6.90
2018-08-18T12:53:53.852Z,8.10
2018-08-18T12:56:25.061Z,10.93
2018-08-18T12:58:54.780Z,9.58
2018-08-18T13:01:37.695Z,10.60
2018-08-18T13:04:10.202Z,7.50
2018-08-18T13:06:46.136Z,9.63
2018-08-18T13:09:17.520Z,5.83
2018-08-18T13:11:49.773Z,7.37
2018-08-18T13:14:20.997Z,7.60
2018-08-18T13:16:50.448Z,8.43
2018-08-18T13:19:21.494Z,6.17
2018-08-18T13:21:50.737Z,6.58
2018-08-18T13:24:20.019Z,7.22
2018-08-18T13:26:49.845Z,8.50
2018-08-18T13:29:19.217Z,5.67
2018-08-18T13:31:48.459Z,7.20
2018-08-18T13:34:19.996Z,6.42
2018-08-18T13:36:49.990Z,6.08
2018-08-18T13:39:20.263Z,7.22
2018-08-18T13:41:50.471Z,8.70
2018-08-18T13:44:30.959Z,7.28
2018-08-18T13:47:00.242Z,7.12
2018-08-18T13:49:29.502Z,6.20
2018-08-18T13:51:58.736Z,5.83
2018-08-18T13:54:27.947Z,6.03
2018-08-18T13:56:57.270Z,7.08
2018-08-18T13:59:43.420Z,6.42
2018-08-18T14:02:12.663Z,6.15
2018-08-18T14:04:42.934Z,6.10
2018-08-18T14:07:12.668Z,6.40
2018-08-18T14:09:48.199Z,6.20
2018-08-18T14:12:18.254Z,8.30
2018-08-18T14:14:49.161Z,5.58
2018-08-18T14:17:20.602Z,6.92
2018-08-18T14:19:50.774Z,5.85
2018-08-18T14:22:22.871Z,5.83
2018-08-18T14:24:52.088Z,6.10
2018-08-18T14:27:23.258Z,5.83
2018-08-18T14:29:52.513Z,6.08
2018-08-18T14:32:27.659Z,7.40
2018-08-18T14:35:02.244Z,5.87
2018-08-18T14:37:31.544Z,5.53
2018-08-18T14:40:00.753Z,6.10
2018-08-18T14:42:29.981Z,5.22
2018-08-18T14:45:01.441Z,6.00
2018-08-18T14:47:31.013Z,5.53
2018-08-18T14:50:13.380Z,5.25
2018-08-18T14:52:44.177Z,5.95
2018-08-18T14:55:13.677Z,6.47
2018-08-18T14:57:48.846Z,5.50
2018-08-18T15:00:18.077Z,7.83
2018-08-18T15:02:47.713Z,6.30
2018-08-18T15:05:17.026Z,5.90
2018-08-18T15:07:52.648Z,5.58
2018-08-18T15:10:33.655Z,5.75
2018-08-18T15:13:03.597Z,5.50
2018-08-18T15:15:33.767Z,7.28
2018-08-18T15:18:05.310Z,5.37
2018-08-18T15:20:36.625Z,6.15
2018-08-18T15:23:07.192Z,5.33
2018-08-18T15:25:37.688Z,5.55
2018-08-18T15:28:11.613Z,4.83
2018-08-18T15:30:44.219Z,4.30
2018-08-18T15:33:19.328Z,4.95
2018-08-18T15:35:48.608Z,6.60
2018-08-18T15:38:18.197Z,5.00
2018-08-18T15:40:47.381Z,5.97
2018-08-18T15:43:16.570Z,5.05
2018-08-18T15:45:58.934Z,5.70
2018-08-18T15:48:28.328Z,6.00
2018-08-18T15:50:57.557Z,3.92
2018-08-18T15:53:43.558Z,6.17
2018-08-18T15:56:12.837Z,4.35
2018-08-18T15:58:42.188Z,4.97
2018-08-18T16:01:11.400Z,7.12
2018-08-18T16:03:40.638Z,4.50
2018-08-18T16:06:10.234Z,4.92
2018-08-18T16:08:39.657Z,4.67
2018-08-18T16:11:09.078Z,5.22
2018-08-18T16:13:38.311Z,5.08
2018-08-18T16:16:07.527Z,4.33
2018-08-18T16:18:36.786Z,4.70
2018-08-18T16:21:13.198Z,5.17
2018-08-18T16:23:43.393Z,9.18
2018-08-18T16:26:13.646Z,6.00
2018-08-18T16:28:43.409Z,4.78
2018-08-18T16:31:13.028Z,5.97
2018-08-18T16:33:42.643Z,5.37
2018-08-18T16:36:11.908Z,4.20
2018-08-18T16:38:41.227Z,5.30
2018-08-18T16:41:10.778Z,5.05
2018-08-18T16:43:40.048Z,5.47
2018-08-18T16:46:23.795Z,5.67
2018-08-18T16:48:53.360Z,4.50
2018-08-18T16:51:22.964Z,5.35
2018-08-18T16:53:52.216Z,5.53
2018-08-18T16:56:24.832Z,5.05
2018-08-18T16:58:55.527Z,4.72
2018-08-18T17:01:25.070Z,5.40
2018-08-18T17:03:54.597Z,5.55
2018-08-18T17:06:23.865Z,4.55
2018-08-18T17:08:53.144Z,5.25
2018-08-18T17:11:22.620Z,5.97
2018-08-18T17:13:51.847Z,5.42
2018-08-18T17:16:22.001Z,5.17
2018-08-18T17:18:51.196Z,5.08
2018-08-18T17:21:20.519Z,6.28
2018-08-18T17:23:49.836Z,6.65
2018-08-18T17:26:19.215Z,6.72
2018-08-18T17:28:48.715Z,4.97
2018-08-18T17:31:17.963Z,5.12
2018-08-18T17:33:47.189Z,4.70
2018-08-18T17:36:18.165Z,6.22
2018-08-18T17:38:47.460Z,4.50
2018-08-18T17:41:16.720Z,6.60
2018-08-18T17:43:46.263Z,5.20
2018-08-18T17:46:15.450Z,6.22
2018-08-18T17:48:50.093Z,7.60
2018-08-18T17:51:19.300Z,9.55
2018-08-18T17:53:55.896Z,8.90
2018-08-18T17:56:25.100Z,11.90
2018-08-18T17:58:54.730Z,9.23
2018-08-18T18:01:24.231Z,6.60
2018-08-18T18:03:53.485Z,10.13
2018-08-18T18:06:23.215Z,6.30
2018-08-18T18:08:53.052Z,8.55
2018-08-18T18:11:23.022Z,19.07
2018-08-18T18:13:52.276Z,19.85
2018-08-18T18:16:27.285Z,20.80
2018-08-18T18:18:58.184Z,22.35
2018-08-18T18:21:27.408Z,20.02
2018-08-18T18:23:56.644Z,21.93
2018-08-18T18:26:25.897Z,29.70
2018-08-18T18:28:55.251Z,21.10
2018-08-18T18:31:24.553Z,19.45
2018-08-18T18:33:58.518Z,19.92
2018-08-18T18:36:28.297Z,19.90
2018-08-18T18:38:57.960Z,21.10
2018-08-18T18:41:27.605Z,22.17
2018-08-18T18:44:00.214Z,22.40
2018-08-18T18:46:29.526Z,24.67
2018-08-18T18:48:58.924Z,31.20
2018-08-18T18:51:28.252Z,25.23
2018-08-18T18:53:58.237Z,22.60
2018-08-18T18:56:27.512Z,25.00
2018-08-18T18:58:56.717Z,24.30
2018-08-18T19:01:26.044Z,18.55
2018-08-18T19:03:55.342Z,24.92
2018-08-18T19:06:24.544Z,26.97
2018-08-18T19:09:02.167Z,22.13
2018-08-18T19:11:31.744Z,44.00
2018-08-18T19:14:01.093Z,42.27
2018-08-18T19:16:30.411Z,43.35
2018-08-18T19:19:00.555Z,19.10
2018-08-18T19:21:33.369Z,21.80
2018-08-18T19:24:08.469Z,21.68
2018-08-18T19:26:46.733Z,17.27
2018-08-18T19:29:16.484Z,21.30
2018-08-18T19:31:45.761Z,16.87
2018-08-18T19:34:15.492Z,27.90
2018-08-18T19:37:01.584Z,14.18
2018-08-18T19:39:32.128Z,16.35
2018-08-18T19:42:07.612Z,17.12
2018-08-18T19:44:43.390Z,16.30
2018-08-18T19:47:12.326Z,12.83
2018-08-18T19:49:45.009Z,14.28
2018-08-18T19:52:15.759Z,12.70
2018-08-18T19:54:51.156Z,12.40
2018-08-18T19:57:27.233Z,12.68
2018-08-18T20:00:02.022Z,12.13
2018-08-18T20:03:09.323Z,12.53
2018-08-18T20:05:38.060Z,12.30
2018-08-18T20:08:07.441Z,13.88
2018-08-18T20:10:43.503Z,15.57
2018-08-18T20:13:12.620Z,13.23
2018-08-18T20:15:41.752Z,14.00
2018-08-18T20:18:10.414Z,19.77
2018-08-18T20:20:39.103Z,15.63
2018-08-18T20:23:07.749Z,16.37
2018-08-18T20:25:37.287Z,14.85
2018-08-18T20:28:06.561Z,15.78
2018-08-18T20:30:35.339Z,15.93
2018-08-18T20:33:04.382Z,15.83
2018-08-18T20:35:32.976Z,16.13
2018-08-18T20:38:01.640Z,19.07
2018-08-18T20:40:30.302Z,18.40
2018-08-18T20:42:59.413Z,16.77
2018-08-18T20:45:37.792Z,16.27
2018-08-18T20:48:06.988Z,17.40
2018-08-18T20:50:35.884Z,16.57
2018-08-18T20:53:09.934Z,15.60
2018-08-18T20:55:38.893Z,19.57
2018-08-18T20:58:07.537Z,18.17
2018-08-18T21:00:36.373Z,17.60
2018-08-18T21:03:05.070Z,19.90
2018-08-18T21:05:34.177Z,19.20
2018-08-18T21:08:21.517Z,18.90
2018-08-18T21:10:50.302Z,18.87
2018-08-18T21:13:18.935Z,18.97
2018-08-18T21:15:47.605Z,19.83
2018-08-18T21:18:19.409Z,22.63
2018-08-18T21:20:48.501Z,21.30
2018-08-18T21:23:17.884Z,20.37
2018-08-18T21:25:49.595Z,21.57
2018-08-18T21:28:19.413Z,21.07
2018-08-18T21:30:48.595Z,24.53
2018-08-18T21:33:17.600Z,22.60
2018-08-18T21:35:46.295Z,21.93
2018-08-18T21:38:15.261Z,23.17
2018-08-18T21:40:43.957Z,20.53
2018-08-18T21:43:24.001Z,21.07
2018-08-18T21:45:53.784Z,21.20
2018-08-18T21:48:32.972Z,19.47
2018-08-18T21:51:01.936Z,19.47
2018-08-18T21:53:30.625Z,19.13
2018-08-18T21:56:00.667Z,19.63
2018-08-18T21:58:29.314Z,20.50
2018-08-18T22:01:03.632Z,19.53
2018-08-18T22:03:32.378Z,19.53
2018-08-18T22:06:01.213Z,19.27
2018-08-18T22:08:29.892Z,18.93
2018-08-18T22:10:58.891Z,18.90
2018-08-18T22:13:27.574Z,19.20
2018-08-18T22:15:56.179Z,18.27
2018-08-18T22:18:24.814Z,18.80
2018-08-18T22:20:53.856Z,18.60
2018-08-18T22:23:22.506Z,19.77
2018-08-18T22:25:51.810Z,20.13
2018-08-18T22:28:21.812Z,18.67
2018-08-18T22:30:50.911Z,19.13
2018-08-18T22:33:19.670Z,20.37
2018-08-18T22:35:54.331Z,20.17
2018-08-18T22:38:23.043Z,20.40
2018-08-18T22:40:51.648Z,22.83
2018-08-18T22:43:32.316Z,22.27
2018-08-18T22:46:00.965Z,24.53
2018-08-18T22:48:29.684Z,29.37
2018-08-18T22:50:58.760Z,31.90
2018-08-18T22:53:27.656Z,32.23
2018-08-18T22:55:56.373Z,25.43
2018-08-18T22:58:25.051Z,21.87
2018-08-18T23:00:55.549Z,23.30
2018-08-18T23:03:24.217Z,26.10
2018-08-18T23:05:52.899Z,28.37
2018-08-18T23:08:21.568Z,26.53
2018-08-18T23:10:50.555Z,25.07
2018-08-18T23:13:19.350Z,23.57
2018-08-18T23:15:48.025Z,24.20
2018-08-18T23:18:16.685Z,23.50
2018-08-18T23:20:45.333Z,23.50
2018-08-18T23:23:13.974Z,23.23
2018-08-18T23:25:42.667Z,20.53
2018-08-18T23:28:11.380Z,20.40
2018-08-18T23:30:40.406Z,21.73
2018-08-18T23:33:10.499Z,20.47
2018-08-18T23:35:39.192Z,20.53
2018-08-18T23:38:07.881Z,21.43
2018-08-18T23:40:36.929Z,22.30
2018-08-18T23:43:05.750Z,21.03
2018-08-18T23:45:40.343Z,21.77
2018-08-18T23:48:12.029Z,22.20
2018-08-18T23:50:42.245Z,22.73
2018-08-18T23:53:12.237Z,21.90
2018-08-18T23:56:00.521Z,21.47
2018-08-18T23:58:30.609Z,22.23
